Time;durP1;ratioP1;P1;durP2;ratioP2;P2;SDS_P1;SDS_P2;PMS_P1;PMS_P2;Temp;Humidity;BMP_temperature;BMP_pressure;BME280_temperature;BME280_humidity;BME280_pressure;Samples;Min_cycle;Max_cycle;Signal;HPM_P1;HPM_P2
2023/07/09 00:00:04;;;;;;;5.28;3.22;;;;;;;28.67;45.73;99094.25;2086404;28;20152;-52
2023/07/09 00:01:05;;;;;;;5.82;3.22;;;;;;;28.68;45.56;99093.16;2086259;28;20049;-52
2023/07/09 00:02:09;;;;;;;6.50;3.78;;;;;;;28.71;45.18;99100.03;2085806;28;20052;-50
2023/07/09 00:03:11;;;;;;;5.88;3.80;;;;;;;28.72;45.04;99094.31;2086233;28;20094;-49
2023/07/09 00:04:15;;;;;;;7.28;3.85;;;;;;;28.71;44.99;99089.09;2087646;28;20055;-50
2023/07/09 00:05:17;;;;;;;8.80;3.75;;;;;;;28.70;45.08;99096.47;2082559;28;20139;-54
2023/07/09 00:06:19;;;;;;;5.10;3.83;;;;;;;28.65;45.67;99099.16;2086974;28;20869;-51
2023/07/09 00:07:24;;;;;;;6.43;4.25;;;;;;;28.65;45.28;99099.16;2084967;28;20044;-52
2023/07/09 00:08:29;;;;;;;13.93;3.92;;;;;;;28.66;45.65;99100.78;2084337;28;20083;-50
2023/07/09 00:09:30;;;;;;;7.22;4.00;;;;;;;28.63;45.51;99090.38;2086711;28;20146;-55
2023/07/09 00:10:34;;;;;;;7.90;4.20;;;;;;;28.65;45.59;99099.16;2084583;28;20580;-51
2023/07/09 00:11:34;;;;;;;8.25;3.90;;;;;;;28.67;45.74;99097.00;2083394;28;20079;-46
2023/07/09 00:12:36;;;;;;;6.97;3.80;;;;;;;28.68;45.26;99098.63;2083959;28;20041;-52
2023/07/09 00:13:37;;;;;;;6.43;3.42;;;;;;;28.67;45.29;99097.00;2086862;28;20049;-45
2023/07/09 00:14:38;;;;;;;5.60;3.90;;;;;;;28.67;45.00;99091.53;2087254;28;20056;-50
2023/07/09 00:15:39;;;;;;;8.23;4.07;;;;;;;28.67;45.02;99096.19;2086916;28;20221;-45
2023/07/09 00:16:42;;;;;;;7.55;3.90;;;;;;;28.63;44.88;99086.84;2087190;28;20056;-53
2023/07/09 00:17:43;;;;;;;7.45;3.60;;;;;;;28.64;44.52;99089.31;2087623;28;20462;-52
2023/07/09 00:18:48;;;;;;;6.30;4.00;;;;;;;28.66;44.60;99089.88;2081657;28;20047;-49
2023/07/09 00:19:51;;;;;;;4.95;3.58;;;;;;;28.68;44.66;99081.44;2086198;28;20048;-45
2023/07/09 00:20:52;;;;;;;7.65;4.07;;;;;;;28.68;44.72;99082.25;2087303;28;20060;-52
2023/07/09 00:21:53;;;;;;;5.53;3.83;;;;;;;28.67;45.39;99086.06;2082222;28;20091;-46
2023/07/09 00:22:55;;;;;;;5.88;3.88;;;;;;;28.66;45.89;99083.59;2088984;28;20048;-46
2023/07/09 00:23:56;;;;;;;7.03;3.47;;;;;;;28.66;45.43;99084.41;2083746;28;20049;-46
2023/07/09 00:24:56;;;;;;;6.82;3.22;;;;;;;28.65;46.03;99084.69;2073447;28;20052;-50
2023/07/09 00:25:58;;;;;;;6.50;4.15;;;;;;;28.64;45.98;99077.56;2083690;28;20491;-48
2023/07/09 00:26:59;;;;;;;4.93;3.75;;;;;;;28.63;45.97;99078.66;2087699;28;20052;-46
2023/07/09 00:28:01;;;;;;;8.77;3.65;;;;;;;28.62;45.90;99083.28;2086431;28;20123;-52
2023/07/09 00:29:01;;;;;;;5.82;4.00;;;;;;;28.63;45.94;99084.94;2084151;28;20066;-54
2023/07/09 00:30:03;;;;;;;5.00;3.35;;;;;;;28.64;46.08;99081.13;2085042;28;20544;-47
2023/07/09 00:31:05;;;;;;;8.10;3.10;;;;;;;28.66;46.04;99078.13;2082416;28;20569;-48
2023/07/09 00:32:11;;;;;;;7.05;3.40;;;;;;;28.65;46.11;99077.31;2084966;28;20565;-45
2023/07/09 00:33:14;;;;;;;4.30;3.88;;;;;;;28.64;45.72;99074.84;2085513;28;20095;-51
2023/07/09 00:34:17;;;;;;;4.40;3.10;;;;;;;28.64;45.75;99074.84;2087790;28;20111;-51
2023/07/09 00:35:20;;;;;;;5.05;3.85;;;;;;;28.64;45.66;99083.88;2085834;28;20048;-51
2023/07/09 00:36:26;;;;;;;7.32;3.90;;;;;;;28.68;45.50;99082.25;2084966;28;20049;-54
2023/07/09 00:37:26;;;;;;;5.28;3.83;;;;;;;28.66;45.46;99084.41;2085231;28;20049;-49
2023/07/09 00:38:28;;;;;;;8.00;4.20;;;;;;;28.64;45.31;99081.13;2086123;28;20989;-49
2023/07/09 00:39:29;;;;;;;6.82;3.97;;;;;;;28.65;45.02;99082.78;2086817;28;20155;-51
2023/07/09 00:40:31;;;;;;;3.72;3.08;;;;;;;28.66;45.28;99084.41;2087136;28;20052;-49
2023/07/09 00:41:34;;;;;;;13.07;4.80;;;;;;;28.59;44.69;99086.53;2085707;28;20637;-48
2023/07/09 00:42:36;;;;;;;4.97;4.05;;;;;;;28.62;44.69;99082.47;2086347;28;20040;-53
2023/07/09 00:43:37;;;;;;;5.72;4.53;;;;;;;28.63;44.48;99084.13;2080939;28;20053;-52
2023/07/09 00:44:43;;;;;;;6.15;3.55;;;;;;;28.64;44.18;99085.75;2084908;28;20506;-54
2023/07/09 00:45:44;;;;;;;8.85;3.70;;;;;;;28.57;44.27;99087.88;2088679;28;20052;-51
2023/07/09 00:47:29;;;;;;;7.00;3.67;;;;;;;28.57;44.10;99088.69;2085956;28;20045;-54
2023/07/09 00:48:31;;;;;;;7.78;3.75;;;;;;;28.51;44.38;99087.00;2087005;28;20186;-48
2023/07/09 00:49:35;;;;;;;4.57;3.83;;;;;;;28.50;44.15;99083.47;2083298;28;20315;-49
2023/07/09 00:50:41;;;;;;;9.70;3.97;;;;;;;28.46;44.21;99095.13;2086692;28;20058;-49
2023/07/09 00:51:45;;;;;;;5.88;4.00;;;;;;;28.46;44.33;99084.22;2085545;28;20053;-51
2023/07/09 00:52:51;;;;;;;6.82;4.43;;;;;;;28.41;44.16;99084.97;2086770;28;20057;-50
2023/07/09 00:53:58;;;;;;;6.35;3.78;;;;;;;28.44;44.08;99083.66;2086889;28;20044;-52
2023/07/09 00:55:03;;;;;;;8.48;4.45;;;;;;;28.49;44.16;99089.16;2088174;28;20111;-52
2023/07/09 00:56:09;;;;;;;7.88;3.75;;;;;;;28.49;44.10;99087.25;2083622;28;20048;-46
2023/07/09 00:57:17;;;;;;;4.35;3.70;;;;;;;28.52;44.21;99088.66;2086035;28;20048;-52
2023/07/09 00:58:19;;;;;;;9.70;3.55;;;;;;;28.53;43.97;99087.59;2084329;28;20056;-53
2023/07/09 00:59:24;;;;;;;9.02;3.80;;;;;;;28.54;44.27;99086.50;2085586;28;20712;-51
2023/07/09 01:00:45;;;;;;;4.57;3.85;;;;;;;28.53;44.22;99087.59;2088170;28;20047;-48
2023/07/09 01:01:49;;;;;;;4.22;3.75;;;;;;;28.55;44.12;99088.13;2084862;28;20063;-49
2023/07/09 01:02:52;;;;;;;6.90;4.97;;;;;;;28.55;44.07;99088.13;2084136;28;20603;-49
2023/07/09 01:03:58;;;;;;;4.25;3.50;;;;;;;28.58;44.05;99087.59;2088439;28;21069;-54
2023/07/09 01:05:02;;;;;;;6.25;3.58;;;;;;;28.57;44.11;99085.97;2086558;28;20165;-52
2023/07/09 01:06:06;;;;;;;5.97;3.75;;;;;;;28.57;44.25;99085.97;2088329;28;20079;-45
2023/07/09 01:07:08;;;;;;;9.20;3.88;;;;;;;28.61;44.19;99076.19;2088269;28;20060;-51
2023/07/09 01:08:12;;;;;;;12.02;3.90;;;;;;;28.58;44.23;99084.06;2084336;28;20052;-49
2023/07/09 01:09:14;;;;;;;5.65;3.83;;;;;;;28.58;44.22;99084.06;2086025;28;20133;-51
2023/07/09 01:10:16;;;;;;;8.23;4.03;;;;;;;28.57;45.12;99083.25;2088622;28;20054;-48
2023/07/09 01:11:20;;;;;;;4.78;3.53;;;;;;;28.56;46.03;99084.34;2087828;28;20040;-52
2023/07/09 01:12:22;;;;;;;5.70;4.28;;;;;;;28.62;45.46;99085.22;2087823;28;20053;-48
2023/07/09 01:13:26;;;;;;;4.22;3.42;;;;;;;28.60;45.10;99087.38;2088002;28;20045;-48
2023/07/09 01:14:27;;;;;;;5.60;4.05;;;;;;;28.58;44.85;99078.59;2083430;28;20054;-49
2023/07/09 01:15:29;;;;;;;6.72;3.85;;;;;;;28.51;44.98;99079.66;2086856;28;20048;-49
2023/07/09 01:16:33;;;;;;;6.55;4.53;;;;;;;28.49;44.59;99084.53;2089190;28;20052;-47
2023/07/09 01:17:35;;;;;;;6.22;3.80;;;;;;;28.46;44.53;99081.50;2086387;28;20049;-48
2023/07/09 01:18:36;;;;;;;8.63;4.57;;;;;;;28.45;44.55;99079.88;2085148;28;20048;-52
2023/07/09 01:19:43;;;;;;;5.70;4.30;;;;;;;28.47;44.34;99085.88;2088338;28;20110;-52
2023/07/09 01:20:43;;;;;;;6.55;4.40;;;;;;;28.44;44.36;99086.38;2081503;28;20037;-49
2023/07/09 01:21:46;;;;;;;7.43;4.35;;;;;;;28.47;44.28;99091.31;2087626;28;20519;-51
2023/07/09 01:22:50;;;;;;;8.32;4.30;;;;;;;28.46;44.29;99085.03;2089112;28;20052;-52
2023/07/09 01:23:52;;;;;;;5.25;4.13;;;;;;;28.50;44.31;99083.47;2086451;28;20055;-47
2023/07/09 01:25:01;;;;;;;5.43;3.97;;;;;;;28.50;44.15;99079.88;2087132;28;20053;-53
2023/07/09 01:26:03;;;;;;;5.30;4.13;;;;;;;28.52;44.37;99088.66;2088274;28;20057;-47
2023/07/09 01:27:05;;;;;;;8.55;3.92;;;;;;;28.52;44.14;99081.28;2084723;28;20056;-50
2023/07/09 01:28:06;;;;;;;8.27;5.18;;;;;;;28.52;44.10;99081.28;2088752;28;20045;-51
2023/07/09 01:29:07;;;;;;;7.40;4.43;;;;;;;28.50;44.22;99083.47;2088578;28;20135;-49
2023/07/09 01:30:14;;;;;;;6.82;4.28;;;;;;;28.52;44.31;99084.00;2088166;28;20044;-52
2023/07/09 01:31:15;;;;;;;5.65;3.72;;;;;;;28.49;44.24;99086.44;2086918;28;20049;-48
2023/07/09 01:32:18;;;;;;;5.65;4.07;;;;;;;28.53;44.40;99079.41;2087200;28;20046;-52
2023/07/09 01:33:20;;;;;;;5.82;3.95;;;;;;;28.53;44.24;99087.59;2082384;28;20052;-49
2023/07/09 01:34:21;;;;;;;7.72;4.35;;;;;;;28.56;44.64;99092.53;2082046;28;20076;-49
2023/07/09 01:35:24;;;;;;;6.95;4.53;;;;;;;28.55;44.24;99085.41;2082321;28;20083;-49
2023/07/09 01:36:24;;;;;;;5.82;4.85;;;;;;;28.56;44.49;99081.59;2088487;28;20045;-51
2023/07/09 01:37:28;;;;;;;4.68;3.85;;;;;;;28.56;44.63;99089.78;2087915;28;20078;-45
2023/07/09 01:38:30;;;;;;;5.78;4.13;;;;;;;28.57;44.55;99085.16;2083335;28;20083;-55
2023/07/09 01:39:31;;;;;;;7.18;4.15;;;;;;;28.57;44.63;99083.25;2084697;28;20049;-51
2023/07/09 01:40:32;;;;;;;5.95;3.45;;;;;;;28.59;44.85;99086.53;2088303;28;20040;-49
2023/07/09 01:41:34;;;;;;;4.57;3.20;;;;;;;28.58;44.93;99084.06;2087320;28;20048;-51
2023/07/09 01:42:37;;;;;;;7.03;4.13;;;;;;;28.59;44.98;99083.00;2087053;28;20493;-49
2023/07/09 01:43:38;;;;;;;5.20;3.90;;;;;;;28.57;45.02;99085.16;2085554;28;20052;-53
2023/07/09 01:44:41;;;;;;;4.28;3.20;;;;;;;28.58;45.08;99093.06;2088197;28;20139;-52
2023/07/09 01:45:41;;;;;;;4.57;3.90;;;;;;;28.55;45.35;99088.13;2081075;28;20132;-49
2023/07/09 01:46:45;;;;;;;6.88;3.80;;;;;;;28.55;45.44;99087.31;2086726;28;20060;-54
2023/07/09 01:47:46;;;;;;;6.05;3.67;;;;;;;28.54;45.83;99086.50;2086071;28;20051;-45
2023/07/09 01:48:50;;;;;;;5.00;3.95;;;;;;;28.52;46.68;99085.91;2088572;28;20470;-52
2023/07/09 01:49:50;;;;;;;4.55;3.65;;;;;;;28.51;46.56;99087.00;2088800;28;20130;-54
2023/07/09 01:50:54;;;;;;;7.72;3.83;;;;;;;28.50;46.53;99086.19;2088392;28;20056;-52
2023/07/09 01:51:55;;;;;;;6.60;3.95;;;;;;;28.54;45.97;99097.41;2087447;28;20160;-54
2023/07/09 01:52:59;;;;;;;7.95;3.45;;;;;;;28.53;45.73;99095.78;2088001;28;20423;-56
2023/07/09 01:54:00;;;;;;;4.20;3.55;;;;;;;28.53;45.51;99095.78;2084256;28;20052;-56
2023/07/09 01:55:02;;;;;;;5.55;3.67;;;;;;;28.57;45.58;99093.34;2087715;28;20052;-54
2023/07/09 01:56:07;;;;;;;6.97;3.63;;;;;;;28.55;45.41;99090.84;2085880;28;20057;-45
2023/07/09 01:57:19;;;;;;;4.72;3.97;;;;;;;28.53;45.23;99093.03;2088402;28;20648;-45
2023/07/09 01:58:24;;;;;;;6.50;3.70;;;;;;;28.51;45.02;99093.28;2089371;28;20056;-45
2023/07/09 01:59:27;;;;;;;3.58;2.60;;;;;;;28.48;45.14;99084.81;2085578;28;20523;-51
2023/07/09 02:00:28;;;;;;;9.52;5.72;;;;;;;28.41;45.11;99081.41;2081454;28;20060;-46
2023/07/09 02:01:30;;;;;;;7.47;3.47;;;;;;;28.40;44.92;99087.97;2082918;28;20139;-50
2023/07/09 02:02:32;;;;;;;5.05;3.47;;;;;;;28.43;44.92;99082.84;2089331;28;20042;-52
2023/07/09 02:03:35;;;;;;;5.32;4.10;;;;;;;28.43;44.85;99090.19;2089218;28;20060;-45
2023/07/09 02:04:36;;;;;;;6.40;4.00;;;;;;;28.41;44.79;99081.41;2084556;28;20045;-54
2023/07/09 02:05:38;;;;;;;7.00;4.20;;;;;;;28.38;44.82;99081.94;2082901;28;20053;-54
2023/07/09 02:06:39;;;;;;;8.73;3.63;;;;;;;28.39;45.12;99094.47;2085007;28;20146;-46
2023/07/09 02:07:41;;;;;;;4.55;3.63;;;;;;;28.35;45.14;99083.25;2087044;28;20498;-50
2023/07/09 02:08:43;;;;;;;4.95;3.75;;;;;;;28.35;45.13;99082.44;2088621;28;20143;-55
2023/07/09 02:09:45;;;;;;;6.13;3.80;;;;;;;28.35;44.93;99087.91;2087349;28;20052;-51
2023/07/09 02:10:48;;;;;;;6.05;3.70;;;;;;;28.41;45.05;99084.13;2087816;28;20048;-51
2023/07/09 02:11:50;;;;;;;6.70;3.85;;;;;;;28.41;44.70;99092.31;2088202;28;20135;-52
2023/07/09 02:12:51;;;;;;;7.20;4.00;;;;;;;28.42;44.97;99085.81;2082967;28;20476;-52
2023/07/09 02:13:52;;;;;;;6.35;3.78;;;;;;;28.43;45.01;99084.75;2088049;28;20041;-53
2023/07/09 02:14:53;;;;;;;6.65;4.22;;;;;;;28.43;45.04;99087.47;2085706;28;20051;-55
2023/07/09 02:15:55;;;;;;;6.82;4.32;;;;;;;28.44;45.55;99081.75;2087943;28;20465;-49
2023/07/09 02:16:55;;;;;;;4.10;3.70;;;;;;;28.45;45.58;99077.13;2086448;28;20056;-53
2023/07/09 02:17:58;;;;;;;5.70;3.80;;;;;;;28.46;45.78;99078.78;2089706;28;20061;-49
2023/07/09 02:18:59;;;;;;;5.45;3.33;;;;;;;28.43;45.83;99079.28;2080714;28;20422;-45
2023/07/09 02:20:00;;;;;;;7.15;3.88;;;;;;;28.40;45.75;99079.78;2088897;28;20127;-52
2023/07/09 02:21:02;;;;;;;7.50;3.75;;;;;;;28.38;45.56;99074.56;2088717;28;20508;-48
2023/07/09 02:22:02;;;;;;;6.90;4.40;;;;;;;28.40;45.29;99074.31;2086913;28;20139;-45
2023/07/09 02:23:05;;;;;;;5.88;3.95;;;;;;;28.40;45.58;99079.78;2087263;28;20044;-50
2023/07/09 02:24:07;;;;;;;6.72;3.97;;;;;;;28.40;45.30;99090.69;2087599;28;20136;-53
2023/07/09 02:25:09;;;;;;;8.02;4.38;;;;;;;28.44;45.49;99083.66;2081331;28;20159;-45
2023/07/09 02:26:10;;;;;;;7.28;4.30;;;;;;;28.39;45.78;99083.56;2088279;28;20510;-45
2023/07/09 02:27:16;;;;;;;8.27;4.25;;;;;;;28.39;45.87;99083.56;2086328;28;20052;-50
2023/07/09 02:28:18;;;;;;;8.10;3.58;;;;;;;28.40;45.80;99087.97;2087795;28;20041;-50
2023/07/09 02:29:19;;;;;;;6.15;4.03;;;;;;;28.40;45.80;99087.97;2086054;28;20705;-46
2023/07/09 02:30:20;;;;;;;5.85;4.10;;;;;;;28.35;45.84;99083.25;2085674;28;20135;-47
2023/07/09 02:31:22;;;;;;;5.57;3.50;;;;;;;28.32;45.59;99082.97;2083186;28;20049;-50
2023/07/09 02:32:25;;;;;;;6.68;3.92;;;;;;;28.26;45.57;99091.09;2088784;28;20462;-48
2023/07/09 02:33:27;;;;;;;4.55;3.67;;;;;;;28.28;45.35;99093.56;2084626;28;20122;-47
2023/07/09 02:34:29;;;;;;;7.13;3.33;;;;;;;28.22;45.55;99094.56;2087854;28;20059;-51
2023/07/09 02:35:31;;;;;;;5.75;3.85;;;;;;;28.21;45.64;99088.31;2085163;28;20052;-48
2023/07/09 02:36:31;;;;;;;5.13;3.88;;;;;;;28.21;45.29;99093.75;2087755;28;21290;-50
2023/07/09 02:37:33;;;;;;;5.55;4.13;;;;;;;28.19;45.37;99098.63;2084312;28;20126;-48
2023/07/09 02:38:34;;;;;;;5.88;3.35;;;;;;;28.13;45.65;99096.94;2086782;28;20586;-48
2023/07/09 02:39:36;;;;;;;6.95;3.95;;;;;;;28.15;45.31;99100.25;2085727;28;20045;-46
2023/07/09 02:40:38;;;;;;;4.35;3.15;;;;;;;28.10;45.51;99094.72;2086523;28;20049;-49
2023/07/09 02:41:39;;;;;;;4.38;3.35;;;;;;;28.13;45.39;99099.66;2087463;28;20125;-48
2023/07/09 02:42:40;;;;;;;6.10;3.20;;;;;;;28.16;45.58;99099.16;2081325;28;20499;-46
2023/07/09 02:43:41;;;;;;;8.23;4.18;;;;;;;28.19;45.14;99106.00;2074253;28;20049;-45
2023/07/09 02:44:43;;;;;;;6.07;4.65;;;;;;;28.17;44.79;99108.19;2076484;28;20057;-51
2023/07/09 02:45:45;;;;;;;6.00;4.38;;;;;;;28.13;45.07;99102.38;2080393;28;20037;-49
2023/07/09 02:46:46;;;;;;;7.28;3.70;;;;;;;28.09;45.38;99116.81;2088133;28;20052;-46
2023/07/09 02:47:48;;;;;;;6.70;3.33;;;;;;;28.09;45.31;99112.19;2086829;28;20136;-47
2023/07/09 02:48:49;;;;;;;6.55;3.83;;;;;;;28.06;45.47;99112.69;2087704;28;20063;-52
2023/07/09 02:49:51;;;;;;;8.95;4.47;;;;;;;28.04;45.67;99114.84;2084048;28;20616;-46
2023/07/09 02:50:51;;;;;;;7.43;4.20;;;;;;;28.06;45.55;99105.31;2083522;28;20087;-52
2023/07/09 02:51:53;;;;;;;5.40;4.05;;;;;;;28.04;45.53;99107.47;2086574;28;20544;-50
2023/07/09 02:52:54;;;;;;;6.70;4.15;;;;;;;28.06;45.04;99113.50;2087514;28;20044;-49
2023/07/09 02:53:57;;;;;;;6.35;4.65;;;;;;;28.09;45.46;99116.81;2085150;28;20109;-48
2023/07/09 02:55:00;;;;;;;5.63;4.28;;;;;;;28.08;45.30;99110.50;2086479;28;20077;-56
2023/07/09 02:56:01;;;;;;;7.13;3.92;;;;;;;28.02;44.89;99108.81;2084091;28;20048;-52
2023/07/09 02:57:02;;;;;;;8.02;3.50;;;;;;;27.99;44.76;99112.03;2087433;28;20057;-55
2023/07/09 02:58:03;;;;;;;4.72;3.75;;;;;;;27.99;44.72;99112.03;2087036;28;20132;-50
2023/07/09 02:59:05;;;;;;;6.20;4.05;;;;;;;27.98;44.96;99115.84;2086047;28;20052;-54
2023/07/09 03:00:08;;;;;;;5.88;4.28;;;;;;;27.94;45.26;99114.69;2081367;28;20053;-50
2023/07/09 03:01:09;;;;;;;6.75;3.50;;;;;;;27.92;45.47;99116.88;2081141;28;20514;-49
2023/07/09 03:02:11;;;;;;;7.53;3.42;;;;;;;27.92;45.21;99111.44;2078934;28;20056;-53
2023/07/09 03:03:12;;;;;;;8.15;4.32;;;;;;;27.93;45.32;99123.97;2082030;28;20044;-55
2023/07/09 03:04:14;;;;;;;4.03;3.63;;;;;;;27.92;46.07;99116.88;2085041;28;20056;-51
2023/07/09 03:05:14;;;;;;;3.80;3.03;;;;;;;27.92;45.10;99119.59;2085899;28;20117;-51
2023/07/09 03:06:16;;;;;;;5.63;3.75;;;;;;;27.87;45.07;99120.34;2088466;28;20052;-55
2023/07/09 03:07:17;;;;;;;8.43;3.63;;;;;;;27.93;44.80;99118.50;2083227;28;20121;-53
2023/07/09 03:08:18;;;;;;;7.78;3.17;;;;;;;27.98;45.02;99116.69;2079008;28;20095;-56
2023/07/09 03:09:19;;;;;;;6.57;3.90;;;;;;;28.00;44.82;99119.13;2081799;28;20131;-46
2023/07/09 03:10:23;;;;;;;4.00;3.03;;;;;;;28.02;44.96;99122.44;2089699;28;22073;-52
2023/07/09 03:11:23;;;;;;;4.93;3.08;;;;;;;28.02;44.96;99120.53;2084975;28;20056;-50
2023/07/09 03:12:25;;;;;;;6.60;4.47;;;;;;;28.06;44.87;99126.31;2088011;28;21132;-46
2023/07/09 03:13:26;;;;;;;6.63;3.58;;;;;;;28.09;45.22;99122.25;2086012;28;20052;-45
2023/07/09 03:14:27;;;;;;;8.00;3.78;;;;;;;28.11;45.19;99122.81;2083566;28;20442;-52
2023/07/09 03:15:28;;;;;;;4.75;3.60;;;;;;;28.11;45.01;99123.66;2086129;28;20356;-54
2023/07/09 03:16:32;;;;;;;7.43;3.22;;;;;;;28.14;44.84;99122.31;2085822;28;20056;-51
2023/07/09 03:17:33;;;;;;;4.28;3.05;;;;;;;28.15;45.06;99127.50;2086586;28;20135;-52
2023/07/09 03:18:34;;;;;;;5.82;4.28;;;;;;;28.15;45.53;99121.25;2086542;28;20067;-52
2023/07/09 03:19:35;;;;;;;6.38;3.90;;;;;;;28.15;45.30;99124.78;2088949;28;20052;-46
2023/07/09 03:20:38;;;;;;;4.93;3.42;;;;;;;28.17;45.33;99127.28;2083792;28;20045;-48
2023/07/09 03:21:39;;;;;;;6.95;4.15;;;;;;;28.17;45.38;99128.09;2086972;28;20056;-54
2023/07/09 03:22:40;;;;;;;4.53;3.53;;;;;;;28.17;45.24;99122.63;2076548;28;20531;-50
2023/07/09 03:23:41;;;;;;;6.18;3.85;;;;;;;28.18;45.33;99124.28;2085455;28;20568;-56
2023/07/09 03:24:43;;;;;;;6.57;3.65;;;;;;;28.19;45.57;99123.19;2085098;28;20056;-46
2023/07/09 03:25:45;;;;;;;4.50;3.38;;;;;;;28.21;45.67;99120.22;2087168;28;20055;-54
2023/07/09 03:26:50;;;;;;;4.68;3.42;;;;;;;28.19;45.49;99117.72;2075444;28;20626;-53
2023/07/09 03:27:51;;;;;;;8.48;4.57;;;;;;;28.20;45.61;99129.50;2083210;28;20105;-51
2023/07/09 03:28:53;;;;;;;3.90;3.40;;;;;;;28.21;45.91;99129.22;2082363;28;20048;-47
2023/07/09 03:29:53;;;;;;;5.75;3.40;;;;;;;28.22;45.70;99128.16;2086325;28;20061;-47
2023/07/09 03:30:56;;;;;;;6.07;3.60;;;;;;;28.22;45.79;99127.31;2084985;28;20813;-53
2023/07/09 03:31:57;;;;;;;6.20;3.50;;;;;;;28.22;45.88;99124.56;2084764;28;20059;-48
2023/07/09 03:33:00;;;;;;;6.15;4.07;;;;;;;28.21;45.92;99125.66;2076222;28;20076;-51
2023/07/09 03:34:00;;;;;;;5.35;4.03;;;;;;;28.20;45.65;99124.84;2084489;28;20083;-49
2023/07/09 03:35:02;;;;;;;6.05;3.67;;;;;;;28.21;45.77;99131.94;2086288;28;20059;-47
2023/07/09 03:36:04;;;;;;;8.43;3.30;;;;;;;28.21;45.73;99129.22;2087911;28;20123;-53
2023/07/09 03:37:06;;;;;;;3.35;3.05;;;;;;;28.20;45.76;99130.31;2083345;28;20142;-48
2023/07/09 03:38:08;;;;;;;5.07;3.88;;;;;;;28.21;45.70;99137.41;2086665;28;20448;-46
2023/07/09 03:39:09;;;;;;;6.18;4.07;;;;;;;28.19;45.71;99128.63;2076868;28;20063;-53
2023/07/09 03:40:11;;;;;;;4.72;3.38;;;;;;;28.21;45.74;99134.66;2083897;28;20046;-51
2023/07/09 03:41:13;;;;;;;5.50;3.30;;;;;;;28.22;45.67;99139.06;2087141;28;20769;-46
2023/07/09 03:42:14;;;;;;;4.88;3.53;;;;;;;28.21;45.55;99142.03;2085004;28;20714;-49
2023/07/09 03:43:15;;;;;;;6.60;3.50;;;;;;;28.23;45.29;99134.44;2087705;28;20048;-49
2023/07/09 03:44:17;;;;;;;5.57;3.10;;;;;;;28.21;45.50;99137.41;2088854;28;20133;-51
2023/07/09 03:45:18;;;;;;;3.80;3.13;;;;;;;28.22;45.40;99139.06;2087861;28;20049;-53
2023/07/09 03:46:19;;;;;;;8.73;4.38;;;;;;;28.20;45.52;99135.75;2082720;28;20052;-53
2023/07/09 03:47:20;;;;;;;8.48;3.42;;;;;;;28.22;45.55;99139.06;2087397;28;20049;-53
2023/07/09 03:48:21;;;;;;;4.68;3.75;;;;;;;28.23;46.01;99135.25;2089509;28;20098;-48
2023/07/09 03:49:22;;;;;;;4.20;3.20;;;;;;;28.24;46.13;99136.88;2087519;28;20711;-51
2023/07/09 03:50:23;;;;;;;5.20;3.28;;;;;;;28.24;45.71;99139.59;2086227;28;20224;-48
2023/07/09 03:51:25;;;;;;;5.07;3.47;;;;;;;28.23;45.76;99139.88;2087242;28;20060;-45
2023/07/09 03:52:25;;;;;;;6.50;3.92;;;;;;;28.21;46.17;99144.75;2082384;28;20146;-48
2023/07/09 03:53:27;;;;;;;5.65;3.72;;;;;;;28.21;45.75;99148.31;2086061;28;20521;-49
2023/07/09 03:54:28;;;;;;;3.80;3.20;;;;;;;28.18;46.01;99140.63;2088140;28;20084;-49
2023/07/09 03:55:30;;;;;;;5.28;3.45;;;;;;;28.17;45.86;99140.91;2086905;28;20044;-51
2023/07/09 03:56:32;;;;;;;5.40;3.08;;;;;;;28.17;45.82;99136.28;2087072;28;20045;-49
2023/07/09 03:57:35;;;;;;;6.13;4.40;;;;;;;28.21;45.72;99139.31;2086489;28;20056;-51
2023/07/09 03:58:36;;;;;;;5.07;3.75;;;;;;;28.19;45.85;99133.28;2081085;28;20049;-53
2023/07/09 03:59:39;;;;;;;8.15;5.35;;;;;;;28.18;46.32;99135.19;2087731;28;20455;-49
2023/07/09 04:00:40;;;;;;;6.63;3.13;;;;;;;28.20;45.75;99138.47;2087386;28;20098;-47
2023/07/09 04:01:45;;;;;;;7.20;4.32;;;;;;;28.20;45.50;99138.47;2084925;28;20139;-50
2023/07/09 04:02:47;;;;;;;3.65;3.33;;;;;;;28.23;45.35;99140.69;2084049;28;20041;-45
2023/07/09 04:03:48;;;;;;;5.50;3.72;;;;;;;28.21;45.58;99136.56;2086240;28;20091;-49
2023/07/09 04:04:49;;;;;;;6.35;3.42;;;;;;;28.18;45.47;99137.09;2082802;28;20072;-47
2023/07/09 04:05:51;;;;;;;4.55;3.63;;;;;;;28.17;45.32;99135.44;2088078;28;20498;-46
2023/07/09 04:06:52;;;;;;;6.57;3.63;;;;;;;28.17;45.55;99144.44;2086796;28;20052;-49
2023/07/09 04:07:54;;;;;;;6.47;3.83;;;;;;;28.18;45.37;99143.38;2086585;28;20304;-54
2023/07/09 04:08:54;;;;;;;5.78;3.45;;;;;;;28.18;45.66;99140.63;2087809;28;20769;-48
2023/07/09 04:09:56;;;;;;;4.45;3.13;;;;;;;28.19;45.49;99141.44;2085926;28;20045;-47
2023/07/09 04:10:59;;;;;;;6.85;4.18;;;;;;;28.19;45.59;99139.53;2081334;28;20050;-49
2023/07/09 04:12:03;;;;;;;4.65;3.75;;;;;;;28.20;45.97;99141.22;2084883;28;20085;-46
2023/07/09 04:13:03;;;;;;;5.07;4.07;;;;;;;28.20;45.97;99134.94;2086296;28;20051;-46
2023/07/09 04:14:07;;;;;;;6.15;4.03;;;;;;;28.21;45.85;99133.84;2087460;28;20131;-46
2023/07/09 04:15:08;;;;;;;5.32;3.72;;;;;;;28.20;45.82;99132.22;2087291;28;20055;-47
2023/07/09 04:16:11;;;;;;;4.63;3.78;;;;;;;28.20;45.96;99135.75;2082567;28;20056;-46
2023/07/09 04:17:12;;;;;;;7.65;4.93;;;;;;;28.21;45.64;99131.94;2084745;28;20612;-48
2023/07/09 04:18:14;;;;;;;3.92;3.00;;;;;;;28.18;45.95;99137.09;2085627;28;20045;-47
2023/07/09 04:19:14;;;;;;;5.13;3.20;;;;;;;28.16;45.83;99134.59;2088423;28;20079;-44
2023/07/09 04:20:16;;;;;;;4.50;3.25;;;;;;;28.15;45.98;99130.25;2088254;28;20056;-49
2023/07/09 04:21:17;;;;;;;5.13;3.30;;;;;;;28.15;45.81;99138.41;2088111;28;20594;-45
2023/07/09 04:22:18;;;;;;;6.80;3.40;;;;;;;28.15;45.90;99135.69;2086970;28;20060;-46
2023/07/09 04:23:21;;;;;;;5.53;3.17;;;;;;;28.18;45.92;99126.19;2082379;28;20058;-48
2023/07/09 04:24:22;;;;;;;8.93;3.65;;;;;;;28.16;46.16;99123.69;2086924;28;20101;-45
2023/07/09 04:25:24;;;;;;;7.00;3.45;;;;;;;28.18;46.08;99134.38;2086908;28;20793;-50
2023/07/09 04:26:24;;;;;;;5.60;3.50;;;;;;;28.16;46.19;99129.16;2086087;28;20045;-46
2023/07/09 04:27:28;;;;;;;5.18;3.30;;;;;;;28.12;46.21;99129.94;2088950;28;20105;-44
2023/07/09 04:28:30;;;;;;;3.25;2.95;;;;;;;28.14;46.17;99133.22;2086256;28;20045;-49
2023/07/09 04:29:33;;;;;;;5.60;3.42;;;;;;;28.10;46.21;99130.16;2083341;28;20044;-44
2023/07/09 04:30:34;;;;;;;7.30;3.72;;;;;;;28.05;46.31;99127.38;2087147;28;20102;-49
2023/07/09 04:31:36;;;;;;;6.28;3.83;;;;;;;28.11;46.13;99126.38;2087562;28;20443;-46
2023/07/09 04:32:37;;;;;;;4.40;3.58;;;;;;;28.14;46.12;99125.88;2087628;28;20052;-45
2023/07/09 04:33:38;;;;;;;4.32;3.60;;;;;;;28.14;46.05;99125.88;2086889;28;20056;-48
2023/07/09 04:34:39;;;;;;;7.70;3.50;;;;;;;28.17;45.86;99125.38;2088036;28;20081;-46
2023/07/09 04:35:41;;;;;;;6.88;3.28;;;;;;;28.14;46.22;99123.16;2080605;28;20080;-49
2023/07/09 04:36:41;;;;;;;6.82;3.78;;;;;;;28.11;46.16;99118.22;2083506;28;20131;-48
2023/07/09 04:37:43;;;;;;;7.00;3.97;;;;;;;28.08;46.45;99124.13;2086195;28;20050;-48
2023/07/09 04:38:44;;;;;;;5.68;3.15;;;;;;;28.10;46.00;99121.19;2086572;28;20077;-46
2023/07/09 04:39:47;;;;;;;5.65;3.22;;;;;;;28.12;46.07;99117.13;2087225;28;20119;-45
2023/07/09 04:40:48;;;;;;;4.95;3.22;;;;;;;28.13;45.96;99118.75;2077465;28;20052;-49
2023/07/09 04:41:49;;;;;;;10.95;3.40;;;;;;;28.12;46.19;99122.56;2075221;28;20053;-58
2023/07/09 04:42:51;;;;;;;6.15;3.72;;;;;;;28.17;46.52;99122.63;2084706;28;20127;-50
2023/07/09 04:43:53;;;;;;;5.68;3.47;;;;;;;28.14;46.35;99131.31;2086027;28;20061;-46
2023/07/09 04:44:54;;;;;;;5.28;3.72;;;;;;;28.14;46.29;99122.31;2085660;28;20045;-48
2023/07/09 04:45:55;;;;;;;5.82;3.50;;;;;;;28.15;46.35;99119.34;2084931;28;20049;-49
2023/07/09 04:46:56;;;;;;;6.28;3.42;;;;;;;28.13;46.43;99123.38;2084626;28;20057;-47
2023/07/09 04:47:58;;;;;;;6.80;3.47;;;;;;;28.12;46.36;99128.03;2085060;28;20089;-46
2023/07/09 04:49:00;;;;;;;4.35;3.47;;;;;;;28.07;46.47;99122.50;2084723;28;20787;-49
2023/07/09 04:50:03;;;;;;;4.22;3.30;;;;;;;28.06;46.32;99118.13;2085944;28;20051;-50
2023/07/09 04:51:03;;;;;;;4.85;3.67;;;;;;;28.04;46.50;99123.84;2085407;28;20045;-48
2023/07/09 04:52:06;;;;;;;4.57;3.17;;;;;;;28.03;46.13;99118.66;2087800;28;20070;-45
2023/07/09 04:53:07;;;;;;;5.20;3.40;;;;;;;28.08;46.15;99124.13;2085802;28;21736;-48